Hovedside
METAR-TAF:

METAR-TAF

Lufthavner :

Valley, Wales

breddegrad: 53-15N, lengdegrad: 004-32W, høyde over havet: 1 m

Gjeldene værobservasjon

Denne rapporten ble laget for 49 minutter siden, klokken 20:20 UTC
Vind 13 kt fra Sør
Temperatur 12°C
Luftfuktighet 82%
Trykk 996 hPa
Sikt 10 km eller mer

METAR: EGOV 142020Z AUTO 19013KT 9999 FEW013/// BKN068/// 12/09 Q0996

Tid: 22:09 (21:09 UTC)

Varsel

Denne rapporten ble laget for 7 timer og 23 minutter siden, klokken 13:46 UTC
Varsel gyldig fra 14. klokken 15 UTC til 14. klokken 18 UTC
Vind 15 kt fra Sør-sørvest
Sikt 10 km eller mer
Få skyer i en høyde av 2800 ft
Sannsynlighet 30% :
Midlertidig
fra 14. klokken 17 UTC til 14. klokken 18 UTC
Spredte skyer i en høyde av 2400 ft, Bygeskyer.
regnbyger,

TAF: EGOV 141346Z 1415/1418 20015KT 9999 FEW028 PROB30 TEMPO 1417/1418 SHRA SCT024CB

Værobservasjoner og værvarsel for over 4000 flyplasser (METAR- og TAF-rapporter).

Tilgjengelige stasjoner er representert av de røde og gule prikkene på kartet.

Hold musepekeren over prikken for å se navnet på stasjonen.

Klikk så for å se værobservasjoner og -varsler.

For å forandre kartet kan du klikke på den grønne knappen med svart kryss for å zoome inn, på den grønne knappen med strek for å zoome ut, eller på de grønne pilene for å se tilstøtende kart.


METAR-TAF: